Time;durP1;ratioP1;P1;durP2;ratioP2;P2;SDS_P1;SDS_P2;PMS_P1;PMS_P2;Temp;Humidity;BMP_temperature;BMP_pressure;BME280_temperature;BME280_humidity;BME280_pressure;Samples;Min_cycle;Max_cycle;Signal;HPM_P1;HPM_P2
2023/03/12 00:01:01;;;;;;;;;;;;;;;;;;6187942;23;20243;-88
2023/03/12 00:03:27;;;;;;;;;;;;;;;;;;6186514;23;20333;-88
2023/03/12 00:05:53;;;;;;;;;;;;;;;;;;6185580;23;19923;-88
2023/03/12 00:08:19;;;;;;;;;;;;;;;;;;6210450;23;19920;-88
2023/03/12 00:10:45;;;;;;;;;;;;;;;;;;6209278;23;19946;-88
2023/03/12 00:13:11;;;;;;;;;;;;;;;;;;6212206;23;19915;-87
2023/03/12 00:15:37;;;;;;;;;;;;;;;;;;6184171;23;19923;-88
2023/03/12 00:18:03;;;;;;;;;;;;;;;;;;6185352;23;20002;-87
2023/03/12 00:20:29;;;;;;;;;;;;;;;;;;6184833;23;20404;-88
2023/03/12 00:22:55;;;;;;;;;;;;;;;;;;6184956;23;19973;-88
2023/03/12 00:25:24;;;;;;;;;;;;;;;;;;6183540;23;19991;-87
2023/03/12 00:27:50;;;;;;;;;;;;;;;;;;6182885;23;19950;-87
2023/03/12 00:30:16;;;;;;;;;;;;;;;;;;6184942;23;19930;-87
2023/03/12 00:32:42;;;;;;;;;;;;;;;;;;6209145;23;19919;-88
2023/03/12 00:35:08;;;;;;;;;;;;;;;;;;6184102;23;19973;-88
2023/03/12 00:37:34;;;;;;;;;;;;;;;;;;6185131;23;19926;-88
2023/03/12 00:40:00;;;;;;;;;;;;;;;;;;6209546;23;20073;-88
2023/03/12 00:42:26;;;;;;;;;;;;;;;;;;6210434;23;19919;-88
2023/03/12 00:44:52;;;;;;;;;;;;;;;;;;6183044;23;20637;-88
2023/03/12 00:47:18;;;;;;;;;;;;;;;;;;6209136;23;19916;-87
2023/03/12 00:49:44;;;;;;;;;;;;;;;;;;6182899;23;19959;-88
2023/03/12 00:52:10;;;;;;;;;;;;;;;;;;6209991;23;19955;-88
2023/03/12 00:54:36;;;;;;;;;;;;;;;;;;6208002;23;19942;-88
2023/03/12 00:57:02;;;;;;;;;;;;;;;;;;6184167;23;19970;-87
2023/03/12 00:59:28;;;;;;;;;;;;;;;;;;6184617;23;19919;-87
2023/03/12 01:01:54;;;;;;;;;;;;;;;;;;6183457;23;20010;-88
2023/03/12 01:04:20;;;;;;;;;;;;;;;;;;6186366;23;19920;-88
2023/03/12 01:06:46;;;;;;;;;;;;;;;;;;6207831;23;20371;-88
2023/03/12 01:09:12;;;;;;;;;;;;;;;;;;6185756;23;20340;-88
2023/03/12 01:11:38;;;;;;;;;;;;;;;;;;6207580;23;19919;-88
2023/03/12 01:14:04;;;;;;;;;;;;;;;;;;6209967;23;19975;-87
2023/03/12 01:16:30;;;;;;;;;;;;;;;;;;6208054;23;19919;-88
2023/03/12 01:18:55;;;;;;;;;;;;;;;;;;6182563;23;19920;-88
2023/03/12 01:21:21;;;;;;;;;;;;;;;;;;6209599;23;19916;-88
2023/03/12 01:23:47;;;;;;;;;;;;;;;;;;6207506;23;19920;-88
2023/03/12 01:26:13;;;;;;;;;;;;;;;;;;6184446;23;20639;-88
2023/03/12 01:28:39;;;;;;;;;;;;;;;;;;6180983;23;19919;-88
2023/03/12 01:31:05;;;;;;;;;;;;;;;;;;6209290;23;19915;-88
2023/03/12 01:33:31;;;;;;;;;;;;;;;;;;6209336;23;19974;-88
2023/03/12 01:35:57;;;;;;;;;;;;;;;;;;6151642;23;19927;-87
2023/03/12 01:38:23;;;;;;;;;;;;;;;;;;6154850;23;19943;-87
2023/03/12 01:40:49;;;;;;;;;;;;;;;;;;6178259;23;20282;-88
2023/03/12 01:43:15;;;;;;;;;;;;;;;;;;6180151;23;19916;-87
2023/03/12 01:45:41;;;;;;;;;;;;;;;;;;6151465;23;19966;-87
2023/03/12 01:48:07;;;;;;;;;;;;;;;;;;6179124;23;19927;-87
2023/03/12 01:50:33;;;;;;;;;;;;;;;;;;6177026;23;19963;-87
2023/03/12 01:52:59;;;;;;;;;;;;;;;;;;6153355;23;19915;-88
2023/03/12 01:55:25;;;;;;;;;;;;;;;;;;6154950;23;19920;-87
2023/03/12 01:57:51;;;;;;;;;;;;;;;;;;6151382;23;19926;-87
2023/03/12 02:00:18;;;;;;;;;;;;;;;;;;6178558;23;19920;-87
2023/03/12 02:02:44;;;;;;;;;;;;;;;;;;6176903;23;20249;-87
2023/03/12 02:05:10;;;;;;;;;;;;;;;;;;6179269;23;19919;-87
2023/03/12 02:07:36;;;;;;;;;;;;;;;;;;6177130;23;19920;-87
2023/03/12 02:10:02;;;;;;;;;;;;;;;;;;6180561;23;20487;-87
2023/03/12 02:12:28;;;;;;;;;;;;;;;;;;6179923;23;19916;-88
2023/03/12 02:14:54;;;;;;;;;;;;;;;;;;6152954;23;19930;-88
2023/03/12 02:17:20;;;;;;;;;;;;;;;;;;6153142;23;20625;-88
2023/03/12 02:19:46;;;;;;;;;;;;;;;;;;6176668;23;19974;-88
2023/03/12 02:22:12;;;;;;;;;;;;;;;;;;6179585;23;19919;-88
2023/03/12 02:24:38;;;;;;;;;;;;;;;;;;6152514;23;19920;-88
2023/03/12 02:27:07;;;;;;;;;;;;;;;;;;6153422;23;20351;-88
2023/03/12 02:29:33;;;;;;;;;;;;;;;;;;6154661;23;19950;-88
2023/03/12 02:31:59;;;;;;;;;;;;;;;;;;6177315;23;19919;-88
2023/03/12 02:34:25;;;;;;;;;;;;;;;;;;6189485;23;19930;-88
2023/03/12 02:36:51;;;;;;;;;;;;;;;;;;6181585;23;20344;-88
2023/03/12 02:39:18;;;;;;;;;;;;;;;;;;6209323;23;19919;-88
2023/03/12 02:41:44;;;;;;;;;;;;;;;;;;6183069;23;19919;-88
2023/03/12 02:44:10;;;;;;;;;;;;;;;;;;6188594;23;20283;-89
2023/03/12 02:46:36;;;;;;;;;;;;;;;;;;6184631;23;20002;-88
2023/03/12 02:49:02;;;;;;;;;;;;;;;;;;6184730;23;20392;-88
2023/03/12 02:51:28;;;;;;;;;;;;;;;;;;6185408;23;19994;-88
2023/03/12 02:53:54;;;;;;;;;;;;;;;;;;6184833;23;20399;-88
2023/03/12 02:56:20;;;;;;;;;;;;;;;;;;6210311;23;19920;-88
2023/03/12 02:58:46;;;;;;;;;;;;;;;;;;6209656;23;20049;-88
2023/03/12 03:01:12;;;;;;;;;;;;;;;;;;6211448;23;19920;-88
2023/03/12 03:03:38;;;;;;;;;;;;;;;;;;6208971;23;19922;-88
2023/03/12 03:06:04;;;;;;;;;;;;;;;;;;6185125;23;19923;-88
2023/03/12 03:08:30;;;;;;;;;;;;;;;;;;6210563;23;19920;-88
2023/03/12 03:10:56;;;;;;;;;;;;;;;;;;6184702;23;20423;-88
2023/03/12 03:13:21;;;;;;;;;;;;;;;;;;6210733;23;20010;-88
2023/03/12 03:15:47;;;;;;;;;;;;;;;;;;6208887;23;19970;-88
2023/03/12 03:18:13;;;;;;;;;;;;;;;;;;6186426;23;19923;-88
2023/03/12 03:20:39;;;;;;;;;;;;;;;;;;6184090;23;20324;-88
2023/03/12 03:23:05;;;;;;;;;;;;;;;;;;6210911;23;19922;-88
2023/03/12 03:25:31;;;;;;;;;;;;;;;;;;6209681;23;20170;-88
2023/03/12 03:27:57;;;;;;;;;;;;;;;;;;6183328;23;19982;-89
2023/03/12 03:30:23;;;;;;;;;;;;;;;;;;6183761;23;19927;-88
2023/03/12 03:32:49;;;;;;;;;;;;;;;;;;6182941;23;19916;-88
2023/03/12 03:35:15;;;;;;;;;;;;;;;;;;6209087;23;19923;-88
2023/03/12 03:37:41;;;;;;;;;;;;;;;;;;6182568;23;19923;-88
2023/03/12 03:40:10;;;;;;;;;;;;;;;;;;6186632;23;19916;-88
2023/03/12 03:42:37;;;;;;;;;;;;;;;;;;6209933;23;19920;-88
2023/03/12 03:45:03;;;;;;;;;;;;;;;;;;6212844;23;19919;-88
2023/03/12 03:47:29;;;;;;;;;;;;;;;;;;6186792;23;19966;-88
2023/03/12 03:49:54;;;;;;;;;;;;;;;;;;6209149;23;20583;-88
2023/03/12 03:52:20;;;;;;;;;;;;;;;;;;6182724;23;19994;-87
2023/03/12 03:54:46;;;;;;;;;;;;;;;;;;6208592;23;19981;-88
2023/03/12 03:57:12;;;;;;;;;;;;;;;;;;6185224;23;19927;-88
2023/03/12 03:59:41;;;;;;;;;;;;;;;;;;6183255;23;19998;-88
2023/03/12 04:02:07;;;;;;;;;;;;;;;;;;6183563;23;19943;-88
2023/03/12 04:04:33;;;;;;;;;;;;;;;;;;6185545;23;19923;-88
2023/03/12 04:06:59;;;;;;;;;;;;;;;;;;6184303;23;19947;-88
2023/03/12 04:09:25;;;;;;;;;;;;;;;;;;6184358;23;20372;-88
2023/03/12 04:11:51;;;;;;;;;;;;;;;;;;6207308;23;19998;-88
2023/03/12 04:14:17;;;;;;;;;;;;;;;;;;6211186;23;19915;-88
2023/03/12 04:16:43;;;;;;;;;;;;;;;;;;6208020;23;19924;-88
2023/03/12 04:19:09;;;;;;;;;;;;;;;;;;6184015;23;19919;-88
2023/03/12 04:21:38;;;;;;;;;;;;;;;;;;6182034;23;19998;-89
2023/03/12 04:24:04;;;;;;;;;;;;;;;;;;6184823;23;19927;-88
2023/03/12 04:26:30;;;;;;;;;;;;;;;;;;6210389;23;19965;-88
2023/03/12 04:28:56;;;;;;;;;;;;;;;;;;6182712;23;19924;-88
2023/03/12 04:31:22;;;;;;;;;;;;;;;;;;6184902;23;20286;-88
2023/03/12 04:33:50;;;;;;;;;;;;;;;;;;6183258;23;20428;-88
2023/03/12 04:36:16;;;;;;;;;;;;;;;;;;6183717;23;19924;-88
2023/03/12 04:38:42;;;;;;;;;;;;;;;;;;6183669;23;20332;-88
2023/03/12 04:41:08;;;;;;;;;;;;;;;;;;6184307;23;19920;-88
2023/03/12 04:43:34;;;;;;;;;;;;;;;;;;6209459;23;19926;-88
2023/03/12 04:46:00;;;;;;;;;;;;;;;;;;6185683;23;19926;-88
2023/03/12 04:48:26;;;;;;;;;;;;;;;;;;6211424;23;19915;-88
2023/03/12 04:50:52;;;;;;;;;;;;;;;;;;6208954;23;19934;-88
2023/03/12 04:53:18;;;;;;;;;;;;;;;;;;6210318;23;19916;-88
2023/03/12 04:55:44;;;;;;;;;;;;;;;;;;6181295;23;19926;-88
2023/03/12 04:58:10;;;;;;;;;;;;;;;;;;6183076;23;20005;-88
2023/03/12 05:00:36;;;;;;;;;;;;;;;;;;6207664;22;20333;-88
2023/03/12 05:03:02;;;;;;;;;;;;;;;;;;6206818;23;19916;-88
2023/03/12 05:05:28;;;;;;;;;;;;;;;;;;6184313;23;19955;-87
2023/03/12 05:07:54;;;;;;;;;;;;;;;;;;6207556;23;19928;-87
2023/03/12 05:10:20;;;;;;;;;;;;;;;;;;6210340;23;19920;-88
2023/03/12 05:12:46;;;;;;;;;;;;;;;;;;6181858;23;19920;-88
2023/03/12 05:15:16;;;;;;;;;;;;;;;;;;6212368;23;19919;-87
2023/03/12 05:17:42;;;;;;;;;;;;;;;;;;6206755;23;20342;-88
2023/03/12 05:20:08;;;;;;;;;;;;;;;;;;6185140;23;19994;-88
2023/03/12 05:22:34;;;;;;;;;;;;;;;;;;6183053;23;19987;-88
2023/03/12 05:25:00;;;;;;;;;;;;;;;;;;6184866;23;19959;-88
2023/03/12 05:27:26;;;;;;;;;;;;;;;;;;6184980;23;19916;-88
2023/03/12 05:29:52;;;;;;;;;;;;;;;;;;6183087;23;20244;-88
2023/03/12 05:32:18;;;;;;;;;;;;;;;;;;6183619;23;19919;-88
2023/03/12 05:34:44;;;;;;;;;;;;;;;;;;6182534;23;19920;-88
2023/03/12 05:37:10;;;;;;;;;;;;;;;;;;6183967;23;19922;-88
2023/03/12 05:39:36;;;;;;;;;;;;;;;;;;6208136;23;20308;-88
2023/03/12 05:42:02;;;;;;;;;;;;;;;;;;6182753;23;19946;-88
2023/03/12 05:44:33;;;;;;;;;;;;;;;;;;6185137;23;19947;-88
2023/03/12 05:46:59;;;;;;;;;;;;;;;;;;6208324;23;20240;-88
2023/03/12 05:49:25;;;;;;;;;;;;;;;;;;6182517;23;19923;-88
2023/03/12 05:51:51;;;;;;;;;;;;;;;;;;6181521;23;19915;-88
2023/03/12 05:54:17;;;;;;;;;;;;;;;;;;6210254;23;19920;-87
2023/03/12 05:56:43;;;;;;;;;;;;;;;;;;6207320;23;19923;-88
2023/03/12 05:59:09;;;;;;;;;;;;;;;;;;6186457;23;19920;-88
2023/03/12 06:01:35;;;;;;;;;;;;;;;;;;6207706;23;19916;-88
2023/03/12 06:04:01;;;;;;;;;;;;;;;;;;6185164;23;19919;-88
2023/03/12 06:06:27;;;;;;;;;;;;;;;;;;6183429;23;19951;-88
2023/03/12 06:08:53;;;;;;;;;;;;;;;;;;6183147;23;20380;-88
2023/03/12 06:11:22;;;;;;;;;;;;;;;;;;6181729;23;19927;-88
2023/03/12 06:13:48;;;;;;;;;;;;;;;;;;6182265;23;19916;-88
2023/03/12 06:16:14;;;;;;;;;;;;;;;;;;6185333;23;20225;-88
2023/03/12 06:18:40;;;;;;;;;;;;;;;;;;6185545;23;19958;-88
2023/03/12 06:21:06;;;;;;;;;;;;;;;;;;6208318;23;20290;-88
2023/03/12 06:23:32;;;;;;;;;;;;;;;;;;6185893;23;19919;-89
2023/03/12 06:25:58;;;;;;;;;;;;;;;;;;6183392;23;19994;-88
2023/03/12 06:28:24;;;;;;;;;;;;;;;;;;6185328;23;19990;-88
2023/03/12 06:30:50;;;;;;;;;;;;;;;;;;6184391;23;19959;-88
2023/03/12 06:33:16;;;;;;;;;;;;;;;;;;6185635;23;19915;-88
2023/03/12 06:35:42;;;;;;;;;;;;;;;;;;6208748;23;19946;-87
2023/03/12 06:38:08;;;;;;;;;;;;;;;;;;6211905;23;19916;-88
2023/03/12 06:40:37;;;;;;;;;;;;;;;;;;6184632;23;19920;-88
2023/03/12 06:43:03;;;;;;;;;;;;;;;;;;6185845;23;19934;-88
2023/03/12 06:45:29;;;;;;;;;;;;;;;;;;6185582;23;19923;-88
2023/03/12 06:47:55;;;;;;;;;;;;;;;;;;6183482;23;20473;-88
2023/03/12 06:50:21;;;;;;;;;;;;;;;;;;6184046;23;20395;-88
2023/03/12 06:52:47;;;;;;;;;;;;;;;;;;6183498;23;20013;-88
2023/03/12 06:55:13;;;;;;;;;;;;;;;;;;6186570;23;19958;-90
2023/03/12 06:57:40;;;;;;;;;;;;;;;;;;6207794;23;20387;-89
2023/03/12 07:00:13;;;;;;;;;;;;;;;;;;6185523;23;19915;-89
2023/03/12 07:02:41;;;;;;;;;;;;;;;;;;6207632;23;20329;-88
2023/03/12 07:05:08;;;;;;;;;;;;;;;;;;6210044;23;19919;-88
2023/03/12 07:07:41;;;;;;;;;;;;;;;;;;6185938;23;19953;-88
2023/03/12 07:10:08;;;;;;;;;;;;;;;;;;6188494;23;19924;-88
2023/03/12 07:12:35;;;;;;;;;;;;;;;;;;6186373;23;19982;-88
2023/03/12 07:15:02;;;;;;;;;;;;;;;;;;6187353;23;19919;-88
2023/03/12 07:17:30;;;;;;;;;;;;;;;;;;6184639;23;20253;-88
2023/03/12 07:19:57;;;;;;;;;;;;;;;;;;6183612;23;20426;-88
2023/03/12 07:22:27;;;;;;;;;;;;;;;;;;6212222;23;19915;-88
2023/03/12 07:24:54;;;;;;;;;;;;;;;;;;6182444;23;20325;-88
2023/03/12 07:27:34;;;;;;;;;;;;;;;;;;;;;
2023/03/12 07:30:02;;;;;;;;;;;;;;;;;;6211604;23;20329;-88
2023/03/12 07:32:29;;;;;;;;;;;;;;;;;;6185290;23;20221;-88
2023/03/12 07:34:56;;;;;;;;;;;;;;;;;;6181740;23;19923;-88
2023/03/12 07:37:23;;;;;;;;;;;;;;;;;;6187474;23;19947;-87
2023/03/12 07:39:53;;;;;;;;;;;;;;;;;;6211054;23;19915;-88
2023/03/12 07:42:23;;;;;;;;;;;;;;;;;;6187556;23;19916;-88
2023/03/12 07:44:51;;;;;;;;;;;;;;;;;;6182945;23;19919;-88
2023/03/12 07:47:20;;;;;;;;;;;;;;;;;;6187798;23;19951;-87
2023/03/12 07:49:47;;;;;;;;;;;;;;;;;;6184335;23;20006;-88
2023/03/12 07:52:19;;;;;;;;;;;;;;;;;;6210182;23;20586;-88
2023/03/12 07:54:55;;;;;;;;;;;;;;;;;;6209111;23;19915;-87
2023/03/12 07:57:22;;;;;;;;;;;;;;;;;;6185416;23;19915;-88
2023/03/12 07:59:52;;;;;;;;;;;;;;;;;;6186449;23;19916;-87
2023/03/12 08:02:19;;;;;;;;;;;;;;;;;;6186060;23;19982;-87
2023/03/12 08:04:49;;;;;;;;;;;;;;;;;;6185369;23;20324;-88
2023/03/12 08:07:17;;;;;;;;;;;;;;;;;;6183347;23;19916;-87
2023/03/12 08:09:44;;;;;;;;;;;;;;;;;;6184782;23;19923;-88
2023/03/12 08:12:11;;;;;;;;;;;;;;;;;;6184685;23;19920;-87
2023/03/12 08:14:38;;;;;;;;;;;;;;;;;;6182693;23;19920;-87
2023/03/12 08:17:11;;;;;;;;;;;;;;;;;;6184107;23;19983;-87
2023/03/12 08:19:42;;;;;;;;;;;;;;;;;;6182346;23;20343;-87
2023/03/12 08:22:13;;;;;;;;;;;;;;;;;;6236707;23;19923;-87
2023/03/12 08:24:40;;;;;;;;;;;;;;;;;;6182689;23;19926;-87
2023/03/12 08:27:07;;;;;;;;;;;;;;;;;;6208957;23;20334;-87
2023/03/12 08:29:35;;;;;;;;;;;;;;;;;;6208512;23;19938;-87
2023/03/12 08:32:12;;;;;;;;;;;;;;;;;;;;;
2023/03/12 08:34:43;;;;;;;;;;;;;;;;;;6205208;23;19955;-89
2023/03/12 08:37:10;;;;;;;;;;;;;;;;;;6183768;23;20424;-88
2023/03/12 08:39:37;;;;;;;;;;;;;;;;;;6180808;23;19919;-89
2023/03/12 08:42:06;;;;;;;;;;;;;;;;;;6209762;23;19919;-88
2023/03/12 08:44:33;;;;;;;;;;;;;;;;;;6183366;23;19920;-88
2023/03/12 08:47:01;;;;;;;;;;;;;;;;;;6182463;23;19919;-88
2023/03/12 08:49:28;;;;;;;;;;;;;;;;;;6208230;23;20002;-89
2023/03/12 08:51:55;;;;;;;;;;;;;;;;;;6182557;23;19923;-89
2023/03/12 08:54:29;;;;;;;;;;;;;;;;;;6208866;23;19995;-87
2023/03/12 08:57:01;;;;;;;;;;;;;;;;;;6185868;23;19919;-87
2023/03/12 08:59:29;;;;;;;;;;;;;;;;;;6186063;23;20053;-87
2023/03/12 09:01:56;;;;;;;;;;;;;;;;;;6208459;23;20418;-89
2023/03/12 09:04:23;;;;;;;;;;;;;;;;;;6208325;23;20387;-88
2023/03/12 09:06:50;;;;;;;;;;;;;;;;;;6181875;23;19919;-88
2023/03/12 09:09:21;;;;;;;;;;;;;;;;;;6184992;23;19920;-88
2023/03/12 09:11:49;;;;;;;;;;;;;;;;;;6206845;23;19926;-88
2023/03/12 09:14:16;;;;;;;;;;;;;;;;;;6210096;23;19920;-87
2023/03/12 09:16:49;;;;;;;;;;;;;;;;;;6181586;23;20010;-87
2023/03/12 09:19:16;;;;;;;;;;;;;;;;;;6183506;23;19969;-88
2023/03/12 09:21:47;;;;;;;;;;;;;;;;;;6182109;23;19927;-88
2023/03/12 09:24:14;;;;;;;;;;;;;;;;;;6211412;23;19966;-88
2023/03/12 09:26:41;;;;;;;;;;;;;;;;;;6209929;23;19916;-89
2023/03/12 09:29:11;;;;;;;;;;;;;;;;;;6186510;23;19962;-88
2023/03/12 09:31:41;;;;;;;;;;;;;;;;;;6183752;23;19919;-89
2023/03/12 09:34:07;;;;;;;;;;;;;;;;;;6211597;23;19969;-89
2023/03/12 09:36:38;;;;;;;;;;;;;;;;;;6186636;23;19930;-88
2023/03/12 09:39:05;;;;;;;;;;;;;;;;;;6186423;23;20340;-88
2023/03/12 09:41:32;;;;;;;;;;;;;;;;;;6211454;23;20407;-89
2023/03/12 09:43:59;;;;;;;;;;;;;;;;;;6185399;23;19916;-88
2023/03/12 09:46:27;;;;;;;;;;;;;;;;;;6185230;23;20013;-89
2023/03/12 09:48:54;;;;;;;;;;;;;;;;;;6182163;23;19920;-89
2023/03/12 09:51:21;;;;;;;;;;;;;;;;;;6205807;23;19915;-88
2023/03/12 09:53:48;;;;;;;;;;;;;;;;;;6180393;23;19927;-88
2023/03/12 09:56:24;;;;;;;;;;;;;;;;;;6210192;23;19920;-89
2023/03/12 09:58:55;;;;;;;;;;;;;;;;;;6180544;23;19920;-88
2023/03/12 10:01:25;;;;;;;;;;;;;;;;;;6208952;23;19961;-89
2023/03/12 10:03:52;;;;;;;;;;;;;;;;;;6182119;23;19915;-88
2023/03/12 10:06:23;;;;;;;;;;;;;;;;;;6184133;23;19925;-89
2023/03/12 10:08:50;;;;;;;;;;;;;;;;;;6181644;23;19920;-88
2023/03/12 10:11:20;;;;;;;;;;;;;;;;;;6184476;23;20340;-88
2023/03/12 10:13:50;;;;;;;;;;;;;;;;;;6181781;23;20328;-88
2023/03/12 10:16:17;;;;;;;;;;;;;;;;;;6184146;23;19947;-89
2023/03/12 10:18:44;;;;;;;;;;;;;;;;;;6206656;23;19927;-89
2023/03/12 10:21:14;;;;;;;;;;;;;;;;;;6184228;23;19966;-88
2023/03/12 10:23:45;;;;;;;;;;;;;;;;;;6183075;23;19919;-88
2023/03/12 10:26:21;;;;;;;;;;;;;;;;;;6207573;23;20394;-89
2023/03/12 10:28:51;;;;;;;;;;;;;;;;;;6181148;23;20004;-88
2023/03/12 10:31:22;;;;;;;;;;;;;;;;;;6208444;23;19950;-88
2023/03/12 10:33:53;;;;;;;;;;;;;;;;;;6182493;23;20295;-89
2023/03/12 10:36:22;;;;;;;;;;;;;;;;;;6183366;23;19926;-88
2023/03/12 10:38:48;;;;;;;;;;;;;;;;;;6182241;23;19919;-88
2023/03/12 10:41:14;;;;;;;;;;;;;;;;;;6208485;23;19930;-88
2023/03/12 10:43:40;;;;;;;;;;;;;;;;;;6181495;23;19920;-88
2023/03/12 10:46:16;;;;;;;;;;;;;;;;;;;;;
2023/03/12 10:48:48;;;;;;;;;;;;;;;;;;6207115;23;19916;-88
2023/03/12 10:51:14;;;;;;;;;;;;;;;;;;6208994;23;20020;-88
2023/03/12 10:53:43;;;;;;;;;;;;;;;;;;6179010;23;19999;-89
2023/03/12 10:56:09;;;;;;;;;;;;;;;;;;6183621;23;20348;-88
2023/03/12 10:58:58;;;;;;;;;;;;;;;;;;6210435;23;19973;-89
2023/03/12 11:01:24;;;;;;;;;;;;;;;;;;6183575;23;19926;-87
2023/03/12 11:03:50;;;;;;;;;;;;;;;;;;6183441;23;20009;-87
2023/03/12 11:06:24;;;;;;;;;;;;;;;;;;6183457;23;19915;-88
2023/03/12 11:08:55;;;;;;;;;;;;;;;;;;6208114;23;19923;-88
2023/03/12 11:11:24;;;;;;;;;;;;;;;;;;6209445;23;19916;-88
2023/03/12 11:13:52;;;;;;;;;;;;;;;;;;6208287;23;20332;-88
2023/03/12 11:16:25;;;;;;;;;;;;;;;;;;6210591;23;19959;-88
2023/03/12 11:19:00;;;;;;;;;;;;;;;;;;6182900;23;19934;-88
2023/03/12 11:21:39;;;;;;;;;;;;;;;;;;;;;
2023/03/12 11:27:24;;;;;;;;;;;;;;;;;;6119639;23;19944;-88
2023/03/12 11:29:52;;;;;;;;;;;;;;;;;;6174783;23;19931;-88
2023/03/12 11:35:15;;;;;;;;;;;;;;;;;;6213085;23;19928;-89
2023/03/12 11:37:47;;;;;;;;;;;;;;;;;;6207429;23;19958;-88
2023/03/12 11:40:27;;;;;;;;;;;;;;;;;;6187341;23;20289;-88
2023/03/12 11:43:01;;;;;;;;;;;;;;;;;;6172731;23;19927;-88
2023/03/12 11:45:33;;;;;;;;;;;;;;;;;;6149171;23;19927;-89
2023/03/12 11:48:12;;;;;;;;;;;;;;;;;;6149359;23;20008;-88
2023/03/12 12:08:59;;;;;;;;;;;;;;;;;;;;;
2023/03/12 12:27:46;;;;;;;;;;;;;;;;;;;;;
2023/03/12 12:33:26;;;;;;;;;;;;;;;;;;;;;
2023/03/12 12:42:16;;;;;;;;;;;;;;;;;;5939344;24;19950;-89
2023/03/12 13:00:40;;;;;;;;;;;;;;;;;;5999480;23;20039;-89
2023/03/12 13:03:22;;;;;;;;;;;;;;;;;;;;;
2023/03/12 13:06:21;;;;;;;;;;;;;;;;;;6100562;23;19995;-89
2023/03/12 13:08:53;;;;;;;;;;;;;;;;;;6092863;23;20392;-89
2023/03/12 13:14:22;;;;;;;;;;;;;;;;;;6142606;23;20392;-88
2023/03/12 13:20:14;;;;;;;;;;;;;;;;;;6174923;23;19920;-89
2023/03/12 13:26:06;;;;;;;;;;;;;;;;;;6181613;23;19987;-88
2023/03/12 13:28:48;;;;;;;;;;;;;;;;;;6148078;23;19920;-90
2023/03/12 13:31:26;;;;;;;;;;;;;;;;;;6117699;23;20326;-89
2023/03/12 13:34:07;;;;;;;;;;;;;;;;;;6157594;23;20284;-90
2023/03/12 13:36:39;;;;;;;;;;;;;;;;;;6147868;23;20489;-89
2023/03/12 13:42:08;;;;;;;;;;;;;;;;;;6149782;23;19920;-90
2023/03/12 13:44:42;;;;;;;;;;;;;;;;;;6122542;23;19924;-90
2023/03/12 13:47:16;;;;;;;;;;;;;;;;;;6124463;23;20247;-90
2023/03/12 13:49:45;;;;;;;;;;;;;;;;;;6123486;23;19931;-90
2023/03/12 13:52:19;;;;;;;;;;;;;;;;;;6124990;23;19917;-90
2023/03/12 13:54:48;;;;;;;;;;;;;;;;;;6126851;23;19952;-90
2023/03/12 13:57:16;;;;;;;;;;;;;;;;;;6182034;23;19989;-90
2023/03/12 13:59:54;;;;;;;;;;;;;;;;;;6178195;23;20017;-90
2023/03/12 14:02:30;;;;;;;;;;;;;;;;;;6155719;23;19916;-89
2023/03/12 14:05:02;;;;;;;;;;;;;;;;;;6152499;23;20328;-90
2023/03/12 14:07:37;;;;;;;;;;;;;;;;;;6181260;23;20295;-90
2023/03/12 14:10:09;;;;;;;;;;;;;;;;;;6158058;23;20301;-90
2023/03/12 14:12:37;;;;;;;;;;;;;;;;;;6155958;23;19919;-90
2023/03/12 14:15:12;;;;;;;;;;;;;;;;;;6181210;23;19920;-91
2023/03/12 14:17:44;;;;;;;;;;;;;;;;;;6153381;23;20361;-91
2023/03/12 14:20:13;;;;;;;;;;;;;;;;;;6163661;23;19924;-93
2023/03/12 14:22:39;;;;;;;;;;;;;;;;;;6151395;23;20009;-92
2023/03/12 14:25:05;;;;;;;;;;;;;;;;;;6181530;23;19924;-92
2023/03/12 14:27:31;;;;;;;;;;;;;;;;;;6154285;23;20347;-92
2023/03/12 14:29:57;;;;;;;;;;;;;;;;;;6154724;23;20325;-92
2023/03/12 14:32:25;;;;;;;;;;;;;;;;;;6155257;23;19936;-91
2023/03/12 14:34:51;;;;;;;;;;;;;;;;;;6153869;23;19920;-90
2023/03/12 14:37:17;;;;;;;;;;;;;;;;;;6171884;23;19919;-91
2023/03/12 14:39:44;;;;;;;;;;;;;;;;;;6182514;23;19998;-91
2023/03/12 14:42:10;;;;;;;;;;;;;;;;;;6210653;23;19920;-91
2023/03/12 14:44:40;;;;;;;;;;;;;;;;;;6206969;23;19926;-90
2023/03/12 14:47:08;;;;;;;;;;;;;;;;;;6210239;23;19920;-92
2023/03/12 14:49:37;;;;;;;;;;;;;;;;;;6184578;23;20025;-91
2023/03/12 14:52:03;;;;;;;;;;;;;;;;;;6186544;23;19923;-92
2023/03/12 14:54:29;;;;;;;;;;;;;;;;;;6211396;23;20374;-92
2023/03/12 14:56:55;;;;;;;;;;;;;;;;;;6181044;23;20709;-90
2023/03/12 14:59:30;;;;;;;;;;;;;;;;;;6185167;23;19970;-91
2023/03/12 15:02:08;;;;;;;;;;;;;;;;;;6185919;23;19919;-91
2023/03/12 15:04:37;;;;;;;;;;;;;;;;;;6182467;23;19920;-92
2023/03/12 15:07:11;;;;;;;;;;;;;;;;;;6183113;23;19931;-91
2023/03/12 15:09:53;;;;;;;;;;;;;;;;;;;;;
2023/03/12 15:12:22;;;;;;;;;;;;;;;;;;6208586;23;19915;-91
2023/03/12 15:14:48;;;;;;;;;;;;;;;;;;6206778;23;19920;-91
2023/03/12 15:17:14;;;;;;;;;;;;;;;;;;6183408;23;20732;-92
2023/03/12 15:19:56;;;;;;;;;;;;;;;;;;6209625;23;19927;-92
2023/03/12 15:22:26;;;;;;;;;;;;;;;;;;6209091;23;19988;-92
2023/03/12 15:24:52;;;;;;;;;;;;;;;;;;6207600;23;19916;-93
2023/03/12 15:27:22;;;;;;;;;;;;;;;;;;6180093;23;20292;-91
2023/03/12 15:29:51;;;;;;;;;;;;;;;;;;6187054;23;19930;-94
2023/03/12 15:32:30;;;;;;;;;;;;;;;;;;6214838;23;20042;-94
2023/03/12 15:35:02;;;;;;;;;;;;;;;;;;6188523;23;19916;-94
2023/03/12 15:37:39;;;;;;;;;;;;;;;;;;6197704;23;19966;-95
2023/03/12 15:40:15;;;;;;;;;;;;;;;;;;;;;
2023/03/12 15:45:48;;;;;;;;;;;;;;;;;;6182282;23;19951;-94
2023/03/12 15:48:23;;;;;;;;;;;;;;;;;;6153099;23;19935;-94
2023/03/12 15:50:54;;;;;;;;;;;;;;;;;;6155469;23;19927;-93
2023/03/12 15:56:22;;;;;;;;;;;;;;;;;;;;;
2023/03/12 15:58:57;;;;;;;;;;;;;;;;;;6120748;23;20249;-94
2023/03/12 16:01:27;;;;;;;;;;;;;;;;;;6095863;23;19925;-94
2023/03/12 16:03:57;;;;;;;;;;;;;;;;;;6097490;23;19951;-93
2023/03/12 16:06:35;;;;;;;;;;;;;;;;;;6099830;23;19920;-95
2023/03/12 16:09:04;;;;;;;;;;;;;;;;;;6098166;23;19917;-93
2023/03/12 16:11:41;;;;;;;;;;;;;;;;;;6096993;23;20439;-94
2023/03/12 16:20:22;;;;;;;;;;;;;;;;;;;;;
2023/03/12 16:23:03;;;;;;;;;;;;;;;;;;6072802;23;20274;-93
2023/03/12 16:25:54;;;;;;;;;;;;;;;;;;;;;
2023/03/12 16:28:30;;;;;;;;;;;;;;;;;;6182553;23;19919;-93
2023/03/12 16:34:01;;;;;;;;;;;;;;;;;;;;;
2023/03/12 16:36:42;;;;;;;;;;;;;;;;;;6185638;23;19962;-93
2023/03/12 16:39:42;;;;;;;;;;;;;;;;;;;;;
2023/03/12 16:45:28;;;;;;;;;;;;;;;;;;6211835;23;19924;-93
2023/03/12 16:48:02;;;;;;;;;;;;;;;;;;6187723;23;19962;-93
2023/03/12 16:51:10;;;;;;;;;;;;;;;;;;6152271;23;19970;-93
2023/03/12 16:54:10;;;;;;;;;;;;;;;;;;;;;
2023/03/12 16:57:07;;;;;;;;;;;;;;;;;;;;;
2023/03/12 16:59:39;;;;;;;;;;;;;;;;;;6057107;23;20016;-93
2023/03/12 17:02:10;;;;;;;;;;;;;;;;;;6006935;23;20308;-93
2023/03/12 17:04:54;;;;;;;;;;;;;;;;;;6038767;23;20353;-94
2023/03/12 17:07:31;;;;;;;;;;;;;;;;;;6142803;23;19927;-95
2023/03/12 17:13:03;;;;;;;;;;;;;;;;;;6115215;23;19920;-92
2023/03/12 17:15:38;;;;;;;;;;;;;;;;;;6118719;23;19920;-92
2023/03/12 17:18:27;;;;;;;;;;;;;;;;;;6119977;23;19920;-93
2023/03/12 17:23:54;;;;;;;;;;;;;;;;;;6033126;23;19918;-93
2023/03/12 17:26:31;;;;;;;;;;;;;;;;;;6034140;23;19918;-93
2023/03/12 17:29:08;;;;;;;;;;;;;;;;;;6036325;23;19918;-94
2023/03/12 17:31:57;;;;;;;;;;;;;;;;;;6093580;23;19995;-94
2023/03/12 17:34:46;;;;;;;;;;;;;;;;;;6101874;23;19927;-93
2023/03/12 17:37:21;;;;;;;;;;;;;;;;;;6121291;23;20017;-94
2023/03/12 17:39:55;;;;;;;;;;;;;;;;;;6125484;23;19967;-95
2023/03/12 17:45:46;;;;;;;;;;;;;;;;;;6090098;23;19924;-95
2023/03/12 17:48:17;;;;;;;;;;;;;;;;;;6122326;23;19920;-95
2023/03/12 17:50:43;;;;;;;;;;;;;;;;;;6097085;23;20405;-95
2023/03/12 17:53:17;;;;;;;;;;;;;;;;;;6159007;23;19919;-96
2023/03/12 17:55:49;;;;;;;;;;;;;;;;;;6158343;23;19927;-95
2023/03/12 17:58:18;;;;;;;;;;;;;;;;;;6122369;23;19916;-94
2023/03/12 18:00:52;;;;;;;;;;;;;;;;;;6096639;23;20421;-95
2023/03/12 18:03:21;;;;;;;;;;;;;;;;;;6097572;23;20254;-95
2023/03/12 18:08:36;;;;;;;;;;;;;;;;;;6146505;23;19925;-95
2023/03/12 18:11:07;;;;;;;;;;;;;;;;;;6098946;23;20261;-95
2023/03/12 18:13:36;;;;;;;;;;;;;;;;;;6100029;23;19920;-95
2023/03/12 18:16:02;;;;;;;;;;;;;;;;;;6099811;23;19928;-95
2023/03/12 18:18:39;;;;;;;;;;;;;;;;;;;;;
2023/03/12 18:21:08;;;;;;;;;;;;;;;;;;6147625;23;19996;-96
2023/03/12 18:23:41;;;;;;;;;;;;;;;;;;6099761;23;20370;-95
2023/03/12 18:26:13;;;;;;;;;;;;;;;;;;6101217;23;19917;-95
2023/03/12 18:28:44;;;;;;;;;;;;;;;;;;6113908;23;20015;-94
2023/03/12 18:31:12;;;;;;;;;;;;;;;;;;6159063;23;20337;-96
2023/03/12 18:33:46;;;;;;;;;;;;;;;;;;6156664;23;19923;-94
2023/03/12 18:36:20;;;;;;;;;;;;;;;;;;6159203;23;19926;-95
2023/03/12 18:38:52;;;;;;;;;;;;;;;;;;6121808;23;19924;-94
2023/03/12 18:41:30;;;;;;;;;;;;;;;;;;;;;
2023/03/12 18:43:59;;;;;;;;;;;;;;;;;;6146106;23;19920;-94
2023/03/12 18:46:25;;;;;;;;;;;;;;;;;;6123828;23;20246;-95
2023/03/12 18:48:54;;;;;;;;;;;;;;;;;;6146448;23;19994;-94
2023/03/12 18:51:20;;;;;;;;;;;;;;;;;;6147081;23;19924;-94
2023/03/12 18:53:46;;;;;;;;;;;;;;;;;;6144748;23;19923;-94
2023/03/12 18:56:14;;;;;;;;;;;;;;;;;;6147630;23;19948;-94
2023/03/12 18:58:43;;;;;;;;;;;;;;;;;;6145411;23;19920;-93
2023/03/12 19:01:12;;;;;;;;;;;;;;;;;;6146895;23;19939;-94